Time;durP1;ratioP1;P1;durP2;ratioP2;P2;SDS_P1;SDS_P2;PMS_P1;PMS_P2;Temp;Humidity;BMP_temperature;BMP_pressure;BME280_temperature;BME280_humidity;BME280_pressure;Samples;Min_cycle;Max_cycle;Signal;HPM_P1;HPM_P2
2024/01/24 00:02:09;;;;;;;6.25;3.42;;;;;;;-144.74;100.00;63161.41;4975924;28;20023;-74
2024/01/24 00:04:35;;;;;;;7.03;3.70;;;;;;;-144.74;100.00;63161.41;4976069;28;20565;-73
2024/01/24 00:07:00;;;;;;;6.15;3.80;;;;;;;-144.74;100.00;63161.41;4976645;28;20109;-74
2024/01/24 00:09:25;;;;;;;6.20;4.00;;;;;;;-144.74;100.00;63161.41;4993116;28;20145;-73
2024/01/24 00:11:54;;;;;;;7.85;4.80;;;;;;;-144.74;100.00;63161.41;4976673;28;20076;-73
2024/01/24 00:14:22;;;;;;;8.63;4.88;;;;;;;-144.74;100.00;63161.41;4990905;28;20029;-71
2024/01/24 00:16:47;;;;;;;6.70;4.53;;;;;;;-144.74;100.00;63161.41;4995664;28;20025;-72
2024/01/24 00:19:13;;;;;;;7.82;4.00;;;;;;;-144.74;100.00;63161.41;4995416;28;20385;-71
2024/01/24 00:21:38;;;;;;;5.85;4.25;;;;;;;-144.74;100.00;63161.41;4993720;28;20010;-71
2024/01/24 00:24:04;;;;;;;8.63;5.03;;;;;;;-144.74;100.00;63161.41;4995230;28;20040;-72
2024/01/24 00:26:30;;;;;;;11.15;5.65;;;;;;;-144.74;100.00;63161.41;4986081;28;20041;-71
2024/01/24 00:28:55;;;;;;;8.43;5.72;;;;;;;-144.74;100.00;63161.41;4995962;28;20117;-72
2024/01/24 00:31:23;;;;;;;9.13;6.53;;;;;;;-144.74;100.00;63161.41;4994595;28;20034;-72
2024/01/24 00:33:54;;;;;;;8.68;6.90;;;;;;;-144.74;100.00;63161.41;4995504;28;20021;-72
2024/01/24 00:36:19;;;;;;;13.90;7.90;;;;;;;-144.74;100.00;63161.41;4994934;28;20034;-72
2024/01/24 00:38:48;;;;;;;13.75;8.15;;;;;;;-144.74;100.00;63161.41;4994822;28;20432;-75
2024/01/24 00:41:13;;;;;;;14.13;9.05;;;;;;;-144.74;100.00;63161.41;5000870;28;20096;-74
2024/01/24 00:43:39;;;;;;;11.98;9.45;;;;;;;-144.74;100.00;63161.41;4992503;28;20484;-73
2024/01/24 00:46:07;;;;;;;14.80;10.32;;;;;;;-144.74;100.00;63161.41;4980721;28;20041;-74
2024/01/24 00:48:33;;;;;;;18.10;11.38;;;;;;;-144.74;100.00;63161.41;4992472;28;20041;-74
2024/01/24 00:51:01;;;;;;;16.90;12.20;;;;;;;-144.74;100.00;63161.41;4987541;28;20033;-73
2024/01/24 00:53:29;;;;;;;16.30;11.35;;;;;;;-144.74;100.00;63161.41;4980999;28;20120;-73
2024/01/24 00:55:56;;;;;;;14.48;10.55;;;;;;;-144.74;100.00;63161.41;4993402;28;20030;-73
2024/01/24 00:58:22;;;;;;;19.42;11.57;;;;;;;-144.74;100.00;63161.41;4993446;28;20029;-72
2024/01/24 01:00:50;;;;;;;22.65;13.35;;;;;;;-144.74;100.00;63161.41;4987647;28;20026;-74
2024/01/24 01:03:16;;;;;;;15.65;12.35;;;;;;;-144.74;100.00;63161.41;4993668;28;20029;-74
2024/01/24 01:06:00;;;;;;;15.52;12.05;;;;;;;-144.74;100.00;63161.41;4986800;28;20029;-74
2024/01/24 01:08:25;;;;;;;17.33;12.52;;;;;;;-144.74;100.00;63161.41;4994553;28;20029;-73
2024/01/24 01:10:53;;;;;;;17.33;12.95;;;;;;;-144.74;100.00;63161.41;4978938;28;20034;-73
2024/01/24 01:13:22;;;;;;;20.42;11.70;;;;;;;-144.74;100.00;63161.41;4994459;28;20036;-73
2024/01/24 01:15:47;;;;;;;20.98;13.73;;;;;;;-144.74;100.00;63161.41;4979734;28;20034;-73
2024/01/24 01:18:13;;;;;;;15.90;11.70;;;;;;;-144.74;100.00;63161.41;4997564;28;20173;-73
2024/01/24 01:20:38;;;;;;;15.82;10.57;;;;;;;-144.74;100.00;63161.41;4988511;28;20038;-73
2024/01/24 01:23:04;;;;;;;15.70;11.75;;;;;;;-144.74;100.00;63161.41;5015261;28;20532;-73
2024/01/24 01:25:31;;;;;;;13.35;11.02;;;;;;;-144.74;100.00;63161.41;4994481;28;20030;-72
2024/01/24 01:27:57;;;;;;;15.88;10.70;;;;;;;-144.74;100.00;63161.41;4992571;28;20021;-72
2024/01/24 01:30:23;;;;;;;13.68;10.82;;;;;;;-144.74;100.00;63161.41;4995870;28;20037;-73
2024/01/24 01:32:51;;;;;;;19.35;11.23;;;;;;;-144.74;100.00;63161.41;5015145;28;20045;-74
2024/01/24 01:35:17;;;;;;;20.08;11.00;;;;;;;-144.74;100.00;63161.41;4996897;28;20061;-73
2024/01/24 01:37:46;;;;;;;20.48;11.05;;;;;;;-144.74;100.00;63161.41;4989243;28;20527;-73
2024/01/24 01:40:11;;;;;;;17.55;11.27;;;;;;;-144.74;100.00;63161.41;4990508;28;20056;-75
2024/01/24 01:42:43;;;;;;;12.55;9.73;;;;;;;-144.74;100.00;63161.41;4996213;28;20109;-73
2024/01/24 01:45:09;;;;;;;12.82;10.10;;;;;;;-144.74;100.00;63161.41;4997039;28;20026;-74
2024/01/24 01:47:35;;;;;;;10.07;8.35;;;;;;;-144.74;100.00;63161.41;4989599;28;20023;-74
2024/01/24 01:50:05;;;;;;;12.38;8.70;;;;;;;-144.74;100.00;63161.41;4997503;28;20084;-74
2024/01/24 01:52:31;;;;;;;10.65;8.15;;;;;;;-144.74;100.00;63161.41;4994061;28;20080;-74
2024/01/24 01:55:06;;;;;;;11.32;7.97;;;;;;;-144.74;100.00;63161.41;4996489;28;20765;-74
2024/01/24 01:57:34;;;;;;;9.50;6.97;;;;;;;-144.74;100.00;63161.41;4995913;28;20026;-74
2024/01/24 02:00:00;;;;;;;23.88;7.47;;;;;;;-144.74;100.00;63161.41;5014528;28;20057;-75
2024/01/24 02:02:25;;;;;;;9.13;6.28;;;;;;;-144.74;100.00;63161.41;5013045;28;20018;-74
2024/01/24 02:04:53;;;;;;;6.07;5.38;;;;;;;-144.74;100.00;63161.41;4996579;28;20030;-74
2024/01/24 02:07:22;;;;;;;6.93;6.00;;;;;;;-144.74;100.00;63161.41;4995243;28;20030;-74
2024/01/24 02:09:50;;;;;;;8.15;5.28;;;;;;;-144.74;100.00;63161.41;4985527;28;20068;-75
2024/01/24 02:12:15;;;;;;;8.40;5.78;;;;;;;-144.74;100.00;63161.41;4996903;28;20072;-73
2024/01/24 02:14:44;;;;;;;10.40;7.10;;;;;;;-144.74;100.00;63161.41;4994729;28;20030;-73
2024/01/24 02:17:09;;;;;;;8.38;6.05;;;;;;;-144.74;100.00;63161.41;4997506;28;20115;-73
2024/01/24 02:19:35;;;;;;;9.43;6.15;;;;;;;-144.74;100.00;63161.41;4993815;28;20030;-74
2024/01/24 02:22:03;;;;;;;9.63;6.38;;;;;;;-144.74;100.00;63161.41;4996965;28;20018;-74
2024/01/24 02:24:32;;;;;;;8.27;5.82;;;;;;;-144.74;100.00;63161.41;4996013;28;20037;-74
2024/01/24 02:27:00;;;;;;;7.57;5.97;;;;;;;-144.74;100.00;63161.41;4996355;28;20040;-74
2024/01/24 02:29:28;;;;;;;9.75;6.22;;;;;;;-144.74;100.00;63161.41;4994490;28;20053;-74
2024/01/24 02:31:56;;;;;;;9.60;5.93;;;;;;;-144.74;100.00;63161.41;4989181;28;20018;-74
2024/01/24 02:34:30;;;;;;;8.63;6.35;;;;;;;-144.74;100.00;63161.41;4995650;28;20044;-74
2024/01/24 02:36:56;;;;;;;9.50;6.50;;;;;;;-144.74;100.00;63161.41;4997222;28;20018;-74
2024/01/24 02:39:21;;;;;;;7.82;6.35;;;;;;;-144.74;100.00;63161.41;4996858;28;20021;-73
2024/01/24 02:41:46;;;;;;;7.65;6.50;;;;;;;-144.74;100.00;63161.41;4996929;28;20022;-72
2024/01/24 02:44:12;;;;;;;8.82;5.88;;;;;;;-144.74;100.00;63161.41;4996098;28;20025;-72
2024/01/24 02:46:37;;;;;;;7.15;5.55;;;;;;;-144.74;100.00;63161.41;4995023;28;20026;-73
2024/01/24 02:49:03;;;;;;;6.88;6.18;;;;;;;-144.74;100.00;63161.41;4996942;28;20030;-74
2024/01/24 02:51:28;;;;;;;9.45;5.93;;;;;;;-144.74;100.00;63161.41;4994299;28;20046;-75
2024/01/24 02:53:54;;;;;;;8.43;5.72;;;;;;;-144.74;100.00;63161.41;5011449;28;20068;-74
2024/01/24 02:56:19;;;;;;;9.45;6.35;;;;;;;-144.74;100.00;63161.41;4995733;28;20034;-75
2024/01/24 02:58:45;;;;;;;8.05;5.60;;;;;;;-144.74;100.00;63161.41;4996135;28;20028;-75
2024/01/24 03:01:11;;;;;;;9.13;6.43;;;;;;;-144.74;100.00;63161.41;4994167;28;20602;-75
2024/01/24 03:03:39;;;;;;;6.72;6.03;;;;;;;-144.74;100.00;63161.41;5010582;28;20058;-75
2024/01/24 03:06:05;;;;;;;8.70;6.43;;;;;;;-144.74;100.00;63161.41;4995926;28;20100;-73
2024/01/24 03:08:49;;;;;;;11.15;8.00;;;;;;;-144.74;100.00;63161.41;4998626;28;20018;-75
2024/01/24 03:11:17;;;;;;;9.30;7.25;;;;;;;-144.74;100.00;63161.41;4993992;28;20045;-75
2024/01/24 03:13:44;;;;;;;11.32;7.97;;;;;;;-144.74;100.00;63161.41;4994009;28;20023;-74
2024/01/24 03:16:14;;;;;;;13.90;9.75;;;;;;;-144.74;100.00;63161.41;4992629;28;20069;-73
2024/01/24 03:18:42;;;;;;;11.20;8.38;;;;;;;-144.74;100.00;63161.41;5011860;28;20073;-72
2024/01/24 03:21:15;;;;;;;13.27;8.55;;;;;;;-144.74;100.00;63161.41;4995568;28;20091;-72
2024/01/24 03:23:41;;;;;;;6.75;5.82;;;;;;;-144.74;100.00;63161.41;4993029;28;20030;-73
2024/01/24 03:26:07;;;;;;;9.30;7.38;;;;;;;-144.74;100.00;63161.41;4995375;28;20037;-74
2024/01/24 03:28:33;;;;;;;10.38;4.03;;;;;;;-144.74;100.00;63161.41;4994316;28;20252;-73
2024/01/24 03:30:59;;;;;;;4.82;4.32;;;;;;;-144.74;100.00;63161.41;4985566;28;20132;-72
2024/01/24 03:33:25;;;;;;;8.77;4.43;;;;;;;-144.74;100.00;63161.41;4994163;28;20021;-72
2024/01/24 03:35:50;;;;;;;11.85;4.47;;;;;;;-144.74;100.00;63161.41;5011920;28;20121;-73
2024/01/24 03:38:16;;;;;;;7.05;2.90;;;;;;;-144.74;100.00;63161.41;4994868;28;20413;-73
2024/01/24 03:40:42;;;;;;;5.88;2.97;;;;;;;-144.74;100.00;63161.41;4995115;28;20038;-73
2024/01/24 03:43:10;;;;;;;5.95;2.67;;;;;;;-144.74;100.00;63161.41;5012698;28;20160;-73
2024/01/24 03:45:37;;;;;;;9.88;1.70;;;;;;;-144.74;100.00;63161.41;4992578;28;20034;-73
2024/01/24 03:48:03;;;;;;;1.95;1.50;;;;;;;-144.74;100.00;63161.41;5009615;28;20018;-73
2024/01/24 03:50:28;;;;;;;4.07;1.10;;;;;;;-144.74;100.00;63161.41;5012991;28;20045;-73
2024/01/24 03:52:54;;;;;;;17.38;1.30;;;;;;;-144.74;100.00;63161.41;4993569;28;20038;-74
2024/01/24 03:55:19;;;;;;;10.05;1.90;;;;;;;-144.74;100.00;63161.41;4992530;28;20029;-73
2024/01/24 03:57:45;;;;;;;7.15;2.08;;;;;;;-144.74;100.00;63161.41;4992558;28;20041;-74
2024/01/24 04:00:11;;;;;;;11.30;2.53;;;;;;;-144.74;100.00;63161.41;5012738;28;20036;-74
2024/01/24 04:02:36;;;;;;;14.70;2.58;;;;;;;-144.74;100.00;63161.41;4993182;28;20101;-74
2024/01/24 04:05:02;;;;;;;12.18;3.10;;;;;;;-144.74;100.00;63161.41;4992655;28;20073;-74
2024/01/24 04:07:27;;;;;;;12.73;1.90;;;;;;;-144.74;100.00;63161.41;4993425;28;20080;-75
2024/01/24 04:09:52;;;;;;;15.73;2.40;;;;;;;-144.74;100.00;63161.41;4991924;28;20120;-74
2024/01/24 04:12:18;;;;;;;14.55;2.80;;;;;;;-144.74;100.00;63161.41;4995380;28;20072;-74
2024/01/24 04:14:43;;;;;;;20.23;3.97;;;;;;;-144.74;100.00;63161.41;4993165;28;20029;-73
2024/01/24 04:17:09;;;;;;;17.60;3.15;;;;;;;-144.74;100.00;63161.41;4995488;28;20481;-73
2024/01/24 04:19:34;;;;;;;20.17;3.22;;;;;;;-144.74;100.00;63161.41;4990541;28;20034;-74
2024/01/24 04:21:59;;;;;;;19.83;3.63;;;;;;;-144.74;100.00;63161.41;4992836;28;20500;-73
2024/01/24 04:24:25;;;;;;;20.85;3.15;;;;;;;-144.74;100.00;63161.41;5011949;28;20034;-72
2024/01/24 04:26:50;;;;;;;14.82;3.20;;;;;;;-144.74;100.00;63161.41;4994557;28;20439;-72
2024/01/24 04:29:16;;;;;;;19.83;3.45;;;;;;;-144.74;100.00;63161.41;4991424;28;20029;-73
2024/01/24 04:31:42;;;;;;;9.07;3.00;;;;;;;-144.74;100.00;63161.41;4993326;28;20033;-73
2024/01/24 04:34:07;;;;;;;15.88;2.75;;;;;;;-144.74;100.00;63161.41;4994840;28;20030;-73
2024/01/24 04:36:32;;;;;;;15.70;2.88;;;;;;;-144.74;100.00;63161.41;4988010;28;20097;-73
2024/01/24 04:38:59;;;;;;;11.45;2.30;;;;;;;-144.74;100.00;63161.41;4994527;28;20473;-74
2024/01/24 04:41:24;;;;;;;21.30;3.35;;;;;;;-144.74;100.00;63161.41;4992191;28;20026;-74
2024/01/24 04:43:50;;;;;;;17.45;3.60;;;;;;;-144.74;100.00;63161.41;4994926;28;20432;-73
2024/01/24 04:46:15;;;;;;;17.95;3.55;;;;;;;-144.74;100.00;63161.41;4992932;28;20030;-73
2024/01/24 04:48:43;;;;;;;15.57;2.88;;;;;;;-144.74;100.00;63161.41;4992977;28;20022;-73
2024/01/24 04:51:08;;;;;;;17.63;3.35;;;;;;;-144.74;100.00;63161.41;4993997;28;20037;-73
2024/01/24 04:53:35;;;;;;;20.25;2.65;;;;;;;-144.74;100.00;63161.41;4990105;28;20105;-73
2024/01/24 04:56:00;;;;;;;15.90;3.15;;;;;;;-144.74;100.00;63161.41;4991796;28;20053;-73
2024/01/24 04:58:25;;;;;;;19.17;4.05;;;;;;;-144.74;100.00;63161.41;4992896;28;20030;-73
2024/01/24 05:00:51;;;;;;;27.23;4.22;;;;;;;-144.74;100.00;63161.41;4991911;28;20414;-73
2024/01/24 05:03:16;;;;;;;20.15;4.57;;;;;;;-144.74;100.00;63161.41;4991902;28;20181;-73
2024/01/24 05:05:41;;;;;;;33.20;4.68;;;;;;;-144.74;100.00;63161.41;5009089;28;20034;-74
2024/01/24 05:08:07;;;;;;;31.50;5.63;;;;;;;-144.74;100.00;63161.41;4986667;28;20143;-75
2024/01/24 05:10:32;;;;;;;31.60;5.00;;;;;;;-144.74;100.00;63161.41;5010956;28;20034;-74
2024/01/24 05:12:57;;;;;;;33.40;5.90;;;;;;;-144.74;100.00;63161.41;4993762;28;20038;-75
2024/01/24 05:15:23;;;;;;;37.08;4.88;;;;;;;-144.74;100.00;63161.41;4993777;28;20029;-77
2024/01/24 05:17:48;;;;;;;34.70;5.47;;;;;;;-144.74;100.00;63161.41;4996572;28;20042;-80
2024/01/24 05:20:13;;;;;;;42.15;5.60;;;;;;;-144.74;100.00;63161.41;5004119;28;20026;-81
2024/01/24 05:22:39;;;;;;;46.33;7.80;;;;;;;-144.74;100.00;63161.41;5003220;28;20022;-81
2024/01/24 05:25:05;;;;;;;33.05;6.18;;;;;;;-144.74;100.00;63161.41;5002399;28;20034;-80
2024/01/24 05:27:31;;;;;;;44.90;7.78;;;;;;;-144.74;100.00;63161.41;4998845;28;20110;-80
2024/01/24 05:29:56;;;;;;;33.75;6.65;;;;;;;-144.74;100.00;63161.41;5000356;28;20026;-81
2024/01/24 05:32:22;;;;;;;32.85;5.70;;;;;;;-144.74;100.00;63161.41;4997943;28;20148;-79
2024/01/24 05:34:47;;;;;;;47.25;8.23;;;;;;;-144.74;100.00;63161.41;4991370;28;20097;-80
2024/01/24 05:37:13;;;;;;;55.90;7.43;;;;;;;-144.74;100.00;63161.41;4993807;28;20026;-80
2024/01/24 05:39:38;;;;;;;54.92;9.50;;;;;;;-144.74;100.00;63161.41;4994806;28;20033;-79
2024/01/24 05:42:04;;;;;;;54.28;9.52;;;;;;;-144.74;100.00;63161.41;4997263;28;20033;-79
2024/01/24 05:44:29;;;;;;;47.60;8.30;;;;;;;-144.74;100.00;63161.41;5012082;28;20046;-79
2024/01/24 05:46:55;;;;;;;50.05;7.97;;;;;;;-144.74;100.00;63161.41;4992055;28;20022;-78
2024/01/24 05:49:20;;;;;;;46.25;7.88;;;;;;;-144.74;100.00;63161.41;4994180;28;20018;-78
2024/01/24 05:51:45;;;;;;;50.65;6.50;;;;;;;-144.74;100.00;63161.41;4993189;28;20117;-77
2024/01/24 05:54:11;;;;;;;38.53;7.18;;;;;;;-144.74;100.00;63161.41;4990499;28;20018;-78
2024/01/24 05:56:38;;;;;;;46.25;7.60;;;;;;;-144.74;100.00;63161.41;4994035;28;20017;-78
2024/01/24 05:59:03;;;;;;;33.13;6.93;;;;;;;-144.74;100.00;63161.41;4992334;28;20025;-78
2024/01/24 06:01:28;;;;;;;34.92;8.15;;;;;;;-144.74;100.00;63161.41;4993648;28;20026;-78
2024/01/24 06:03:54;;;;;;;43.50;7.80;;;;;;;-144.74;100.00;63161.41;4996090;28;20029;-78
2024/01/24 06:06:19;;;;;;;43.75;7.68;;;;;;;-144.74;100.00;63161.41;4996147;28;20033;-78
2024/01/24 06:08:45;;;;;;;40.05;7.00;;;;;;;-144.74;100.00;63161.41;4993772;28;20091;-78
2024/01/24 06:11:11;;;;;;;46.63;8.18;;;;;;;-144.74;100.00;63161.41;4995359;28;20105;-77
2024/01/24 06:13:36;;;;;;;42.25;6.22;;;;;;;-144.74;100.00;63161.41;4997332;28;20026;-77
2024/01/24 06:16:02;;;;;;;42.05;6.75;;;;;;;-144.74;100.00;63161.41;5012620;28;20121;-77
2024/01/24 06:18:28;;;;;;;42.35;7.65;;;;;;;-144.74;100.00;63161.41;4997903;28;20025;-78
2024/01/24 06:20:53;;;;;;;60.25;7.75;;;;;;;-144.74;100.00;63161.41;4995268;28;20041;-78
2024/01/24 06:23:19;;;;;;;48.35;8.43;;;;;;;-144.74;100.00;63161.41;4997335;28;20049;-79
2024/01/24 06:25:44;;;;;;;52.92;8.73;;;;;;;-144.74;100.00;63161.41;4996347;28;20049;-78
2024/01/24 06:28:09;;;;;;;48.90;9.02;;;;;;;-144.74;100.00;63161.41;4996196;28;20030;-78
2024/01/24 06:30:34;;;;;;;35.97;6.78;;;;;;;-144.74;100.00;63161.41;4995378;28;20033;-77
2024/01/24 06:33:00;;;;;;;42.83;8.10;;;;;;;-144.74;100.00;63161.41;4998205;28;20033;-78
2024/01/24 06:35:25;;;;;;;45.33;7.85;;;;;;;-144.74;100.00;63161.41;4994164;28;20034;-79
2024/01/24 06:37:51;;;;;;;53.33;9.45;;;;;;;-144.74;100.00;63161.41;4998453;28;20477;-79
2024/01/24 06:40:18;;;;;;;45.90;6.95;;;;;;;-144.74;100.00;63161.41;5013870;28;20555;-78
2024/01/24 06:42:43;;;;;;;51.50;6.32;;;;;;;-144.74;100.00;63161.41;4995370;28;20029;-77
2024/01/24 06:45:09;;;;;;;52.95;8.13;;;;;;;-144.74;100.00;63161.41;4994756;28;20034;-78
2024/01/24 06:47:34;;;;;;;49.40;8.23;;;;;;;-144.74;100.00;63161.41;4999720;28;20048;-82
2024/01/24 06:49:59;;;;;;;46.53;9.77;;;;;;;-144.74;100.00;63161.41;5002800;28;20030;-80
2024/01/24 06:52:25;;;;;;;56.60;8.95;;;;;;;-144.74;100.00;63161.41;5009559;28;20022;-80
2024/01/24 06:54:51;;;;;;;45.88;6.80;;;;;;;-144.74;100.00;63161.41;5000142;28;20060;-80
2024/01/24 06:57:17;;;;;;;52.63;9.85;;;;;;;-144.74;100.00;63161.41;4999017;28;20018;-79
2024/01/24 06:59:42;;;;;;;35.90;7.25;;;;;;;-144.74;100.00;63161.41;4998795;28;20034;-79
2024/01/24 07:02:07;;;;;;;39.42;6.53;;;;;;;-144.74;100.00;63161.41;5014437;28;20026;-79
2024/01/24 07:04:33;;;;;;;57.10;10.15;;;;;;;-144.74;100.00;63161.41;4996676;28;20048;-78
2024/01/24 07:06:58;;;;;;;41.00;7.88;;;;;;;-144.74;100.00;63161.41;4997883;28;20030;-79
2024/01/24 07:09:23;;;;;;;52.35;8.95;;;;;;;-144.74;100.00;63161.41;4996030;28;20018;-78
2024/01/24 07:11:49;;;;;;;52.20;10.90;;;;;;;-144.74;100.00;63161.41;4997209;28;20017;-78
2024/01/24 07:14:14;;;;;;;49.10;9.43;;;;;;;-144.74;100.00;63161.41;4996801;28;20037;-78
2024/01/24 07:16:44;;;;;;;48.05;8.93;;;;;;;-144.74;100.00;63161.41;4995892;28;20022;-79
2024/01/24 07:19:10;;;;;;;53.97;7.88;;;;;;;-144.74;100.00;63161.41;4996175;28;20373;-78
2024/01/24 07:21:35;;;;;;;43.33;8.40;;;;;;;-144.74;100.00;63161.41;4994788;28;20006;-78
2024/01/24 07:24:01;;;;;;;47.03;7.90;;;;;;;-144.74;100.00;63161.41;4992367;28;20028;-72
2024/01/24 07:26:28;;;;;;;48.20;9.20;;;;;;;-144.74;100.00;63161.41;4993979;28;20034;-72
2024/01/24 07:28:53;;;;;;;53.03;9.80;;;;;;;-144.74;100.00;63161.41;4995613;28;20064;-73
2024/01/24 07:31:19;;;;;;;55.15;11.35;;;;;;;-144.74;100.00;63161.41;4994716;28;20050;-72
2024/01/24 07:33:44;;;;;;;53.60;8.85;;;;;;;-144.74;100.00;63161.41;4993832;28;20034;-72
2024/01/24 07:36:10;;;;;;;51.42;8.75;;;;;;;-144.74;100.00;63161.41;5010942;28;20033;-73
2024/01/24 07:38:37;;;;;;;67.07;12.23;;;;;;;-144.74;100.00;63161.41;4994879;28;20033;-72
2024/01/24 07:41:02;;;;;;;54.83;11.05;;;;;;;-144.74;100.00;63161.41;4995945;28;20030;-73
2024/01/24 07:43:29;;;;;;;60.88;8.38;;;;;;;-144.74;100.00;63161.41;5012458;28;20053;-71
2024/01/24 07:45:54;;;;;;;65.60;11.60;;;;;;;-144.74;100.00;63161.41;4995207;28;20084;-72
2024/01/24 07:48:20;;;;;;;56.95;9.30;;;;;;;-144.74;100.00;63161.41;4996216;28;20021;-69
2024/01/24 07:50:45;;;;;;;52.85;10.98;;;;;;;-144.74;100.00;63161.41;4995735;28;20037;-69
2024/01/24 07:53:11;;;;;;;63.65;10.60;;;;;;;-144.74;100.00;63161.41;5003619;28;20033;-69
2024/01/24 07:55:37;;;;;;;58.95;10.77;;;;;;;-144.74;100.00;63161.41;4995316;28;20037;-69
2024/01/24 07:58:03;;;;;;;65.15;10.10;;;;;;;-144.74;100.00;63161.41;4995225;28;20022;-69
2024/01/24 08:00:30;;;;;;;64.95;11.77;;;;;;;-144.74;100.00;63161.41;5003029;28;20033;-69
2024/01/24 08:02:55;;;;;;;58.47;10.50;;;;;;;-144.74;100.00;63161.41;5012847;28;20128;-69
2024/01/24 08:05:22;;;;;;;57.67;10.98;;;;;;;-144.74;100.00;63161.41;4989306;28;20038;-67
2024/01/24 08:07:47;;;;;;;59.15;10.75;;;;;;;-144.74;100.00;63161.41;5000666;28;20080;-69
2024/01/24 08:10:13;;;;;;;62.00;9.73;;;;;;;-144.74;100.00;63161.41;4997376;28;20046;-69
2024/01/24 08:12:39;;;;;;;59.38;10.68;;;;;;;-144.74;100.00;63161.41;4995623;28;20080;-69
2024/01/24 08:15:06;;;;;;;60.15;12.18;;;;;;;-144.74;100.00;63161.41;4995323;28;20030;-70
2024/01/24 08:17:32;;;;;;;76.88;14.65;;;;;;;-144.74;100.00;63161.41;4995873;28;20025;-70
2024/01/24 08:19:58;;;;;;;63.55;12.85;;;;;;;-144.74;100.00;63161.41;5012655;28;20030;-70
2024/01/24 08:22:26;;;;;;;65.53;11.95;;;;;;;-144.74;100.00;63161.41;4995498;28;20040;-69
2024/01/24 08:24:51;;;;;;;77.72;11.65;;;;;;;-144.74;100.00;63161.41;4994118;28;20073;-69
2024/01/24 08:27:17;;;;;;;78.68;10.52;;;;;;;-144.74;100.00;63161.41;4994637;28;20022;-69
2024/01/24 08:29:43;;;;;;;53.65;12.32;;;;;;;-144.74;100.00;63161.41;4992143;28;20054;-69
2024/01/24 08:32:08;;;;;;;66.20;13.00;;;;;;;-144.74;100.00;63161.41;4994686;28;20087;-68
2024/01/24 08:34:37;;;;;;;56.70;9.98;;;;;;;-144.74;100.00;63161.41;4994706;28;20037;-68
2024/01/24 08:37:03;;;;;;;70.03;12.00;;;;;;;-144.74;100.00;63161.41;5010800;28;20029;-71
2024/01/24 08:39:28;;;;;;;75.90;13.68;;;;;;;-144.74;100.00;63161.41;4993206;28;20038;-69
2024/01/24 08:41:53;;;;;;;56.47;9.98;;;;;;;-144.74;100.00;63161.41;4988907;28;20030;-67
2024/01/24 08:44:19;;;;;;;63.92;12.27;;;;;;;-144.74;100.00;63161.41;4992032;28;20032;-69
2024/01/24 08:46:44;;;;;;;59.95;12.45;;;;;;;-144.74;100.00;63161.41;4989508;28;20125;-67
2024/01/24 08:49:12;;;;;;;54.47;10.70;;;;;;;-144.74;100.00;63161.41;5008136;28;20052;-69
2024/01/24 08:51:38;;;;;;;63.55;11.30;;;;;;;-144.74;100.00;63161.41;4990183;28;20037;-69
2024/01/24 08:54:04;;;;;;;69.80;10.27;;;;;;;-144.74;100.00;63161.41;4983445;28;20040;-69
2024/01/24 08:56:29;;;;;;;63.38;10.73;;;;;;;-144.74;100.00;63161.41;4989799;28;20038;-69
2024/01/24 08:58:55;;;;;;;63.00;10.48;;;;;;;-144.74;100.00;63161.41;4992014;28;20517;-67
2024/01/24 09:01:20;;;;;;;74.93;11.35;;;;;;;-144.74;100.00;63161.41;4989177;28;20103;-69
2024/01/24 09:03:47;;;;;;;66.25;12.38;;;;;;;-144.74;100.00;63161.41;4990757;28;20034;-69
2024/01/24 09:06:13;;;;;;;68.00;13.75;;;;;;;-144.74;100.00;63161.41;4989077;28;20036;-68
2024/01/24 09:08:38;;;;;;;59.47;11.32;;;;;;;-144.74;100.00;63161.41;4991316;28;20022;-67
2024/01/24 09:11:04;;;;;;;67.95;11.88;;;;;;;-144.74;100.00;63161.41;4991055;28;20121;-66
2024/01/24 09:13:29;;;;;;;82.35;11.73;;;;;;;-144.74;100.00;63161.41;4991959;28;20030;-67
2024/01/24 09:15:55;;;;;;;71.13;12.45;;;;;;;-144.74;100.00;63161.41;5009080;28;20124;-68
2024/01/24 09:18:20;;;;;;;68.15;11.40;;;;;;;-144.74;100.00;63161.41;4992517;28;20030;-67
2024/01/24 09:20:46;;;;;;;67.05;12.63;;;;;;;-144.74;100.00;63161.41;4984775;28;20046;-68
2024/01/24 09:23:12;;;;;;;65.45;12.02;;;;;;;-144.74;100.00;63161.41;4983588;28;20109;-69
2024/01/24 09:25:38;;;;;;;58.08;12.07;;;;;;;-144.74;100.00;63161.41;4991020;28;20038;-69
2024/01/24 09:28:04;;;;;;;65.20;12.02;;;;;;;-144.74;100.00;63161.41;4988159;28;20034;-67
2024/01/24 09:30:30;;;;;;;62.83;10.90;;;;;;;-144.74;100.00;63161.41;5013989;28;20504;-69
2024/01/24 09:32:56;;;;;;;67.65;15.88;;;;;;;-144.74;100.00;63161.41;4990404;28;20034;-68
2024/01/24 09:35:21;;;;;;;68.10;13.40;;;;;;;-144.74;100.00;63161.41;4988966;28;20069;-69
2024/01/24 09:37:46;;;;;;;69.57;11.88;;;;;;;-144.74;100.00;63161.41;4995463;28;20084;-68
2024/01/24 09:40:14;;;;;;;60.30;10.40;;;;;;;-144.74;100.00;63161.41;5005320;28;20186;-68
2024/01/24 09:42:42;;;;;;;54.05;10.70;;;;;;;-144.74;100.00;63161.41;4996247;28;20036;-67
2024/01/24 09:45:08;;;;;;;59.40;10.25;;;;;;;-144.74;100.00;63161.41;4988551;28;20045;-68
2024/01/24 09:47:35;;;;;;;64.68;11.73;;;;;;;-144.74;100.00;63161.41;4995946;28;20456;-69
2024/01/24 09:50:04;;;;;;;75.47;13.93;;;;;;;-144.74;100.00;63161.41;4994710;28;20042;-69
2024/01/24 09:52:32;;;;;;;57.03;9.85;;;;;;;-144.74;100.00;63161.41;4990849;28;20092;-68
2024/01/24 09:55:00;;;;;;;72.13;10.65;;;;;;;-144.74;100.00;63161.41;4991408;28;20050;-69
2024/01/24 09:57:27;;;;;;;61.90;11.82;;;;;;;-144.74;100.00;63161.41;4990089;28;20057;-68
2024/01/24 09:59:53;;;;;;;63.30;11.35;;;;;;;-144.74;100.00;63161.41;4995348;28;20038;-69
2024/01/24 10:02:18;;;;;;;58.25;13.40;;;;;;;-144.74;100.00;63161.41;4991946;28;20049;-69
2024/01/24 10:04:44;;;;;;;61.55;11.88;;;;;;;-144.74;100.00;63161.41;5012146;28;20072;-68
2024/01/24 10:07:10;;;;;;;80.93;13.80;;;;;;;-144.74;100.00;63161.41;5013896;28;20033;-68
2024/01/24 10:09:36;;;;;;;68.80;11.30;;;;;;;-144.74;100.00;63161.41;4992325;28;20482;-68
2024/01/24 10:12:03;;;;;;;70.57;11.98;;;;;;;-144.74;100.00;63161.41;5000218;28;20117;-68
2024/01/24 10:14:29;;;;;;;56.63;11.07;;;;;;;-144.74;100.00;63161.41;4994614;28;20038;-69
2024/01/24 10:16:54;;;;;;;72.00;12.40;;;;;;;-144.74;100.00;63161.41;4994881;28;20091;-70
2024/01/24 10:19:24;;;;;;;63.90;10.93;;;;;;;-144.74;100.00;63161.41;5009869;28;20021;-70
2024/01/24 10:21:49;;;;;;;72.03;11.18;;;;;;;-144.74;100.00;63161.41;5009620;28;20037;-69
2024/01/24 10:24:15;;;;;;;66.38;11.50;;;;;;;-144.74;100.00;63161.41;4991705;28;20038;-69
2024/01/24 10:26:40;;;;;;;60.72;10.05;;;;;;;-144.74;100.00;63161.41;4991010;28;20018;-69
2024/01/24 10:29:07;;;;;;;77.18;11.23;;;;;;;-144.74;100.00;63161.41;5004911;28;20033;-68
2024/01/24 10:31:32;;;;;;;76.55;12.25;;;;;;;-144.74;100.00;63161.41;4990742;28;20030;-69
2024/01/24 10:33:58;;;;;;;72.55;12.63;;;;;;;-144.74;100.00;63161.41;5011912;28;20568;-69
2024/01/24 10:36:24;;;;;;;62.58;12.32;;;;;;;-144.74;100.00;63161.41;5010782;28;20026;-69
2024/01/24 10:38:57;;;;;;;78.32;13.48;;;;;;;-144.74;100.00;63161.41;4994110;28;20036;-69
2024/01/24 10:41:23;;;;;;;68.15;13.77;;;;;;;-144.74;100.00;63161.41;5007510;28;20133;-69
2024/01/24 10:43:55;;;;;;;77.53;10.38;;;;;;;-144.74;100.00;63161.41;4992268;28;20064;-69
2024/01/24 10:46:22;;;;;;;63.25;10.20;;;;;;;-144.74;100.00;63161.41;5006193;28;20037;-69
2024/01/24 10:48:49;;;;;;;67.13;12.98;;;;;;;-144.74;100.00;63161.41;4990997;28;20030;-69
2024/01/24 10:51:15;;;;;;;70.88;11.85;;;;;;;-144.74;100.00;63161.41;4991992;28;20045;-69
2024/01/24 10:53:42;;;;;;;70.43;12.45;;;;;;;-144.74;100.00;63161.41;4984759;28;20026;-69
2024/01/24 10:56:09;;;;;;;85.90;14.48;;;;;;;-144.74;100.00;63161.41;5003841;28;20048;-69